sensor_id;sensor_type;location;lat;lon;timestamp;P1;durP1;ratioP1;P2;durP2;ratioP2
49626;SDS011;35527;54.616;39.786;2023-06-19T00:00:15;6.45;;;2.80;;
49626;SDS011;35527;54.616;39.786;2023-06-19T00:06:27;6.57;;;2.67;;
49626;SDS011;35527;54.616;39.786;2023-06-19T00:09:31;6.10;;;2.35;;
49626;SDS011;35527;54.616;39.786;2023-06-19T00:12:35;5.03;;;2.42;;
49626;SDS011;35527;54.616;39.786;2023-06-19T00:15:40;5.88;;;2.85;;
49626;SDS011;35527;54.616;39.786;2023-06-19T00:18:45;7.05;;;2.83;;
49626;SDS011;35527;54.616;39.786;2023-06-19T00:21:49;5.68;;;2.60;;
49626;SDS011;35527;54.616;39.786;2023-06-19T00:24:52;5.00;;;2.33;;
49626;SDS011;35527;54.616;39.786;2023-06-19T00:27:55;5.82;;;2.50;;
49626;SDS011;35527;54.616;39.786;2023-06-19T00:30:59;5.15;;;2.42;;
49626;SDS011;35527;54.616;39.786;2023-06-19T00:34:02;5.10;;;2.28;;
49626;SDS011;35527;54.616;39.786;2023-06-19T00:37:06;5.20;;;2.35;;
49626;SDS011;35527;54.616;39.786;2023-06-19T00:43:34;5.10;;;2.28;;
49626;SDS011;35527;54.616;39.786;2023-06-19T00:46:37;4.68;;;2.30;;
49626;SDS011;35527;54.616;39.786;2023-06-19T00:49:43;5.97;;;2.80;;
49626;SDS011;35527;54.616;39.786;2023-06-19T00:52:48;4.80;;;2.17;;
49626;SDS011;35527;54.616;39.786;2023-06-19T00:55:55;5.93;;;2.50;;
49626;SDS011;35527;54.616;39.786;2023-06-19T00:58:58;7.47;;;2.58;;
49626;SDS011;35527;54.616;39.786;2023-06-19T01:02:01;4.97;;;2.60;;
49626;SDS011;35527;54.616;39.786;2023-06-19T01:05:07;6.53;;;2.42;;
49626;SDS011;35527;54.616;39.786;2023-06-19T01:14:37;6.15;;;2.30;;
49626;SDS011;35527;54.616;39.786;2023-06-19T01:17:46;6.13;;;2.53;;
49626;SDS011;35527;54.616;39.786;2023-06-19T01:20:50;4.22;;;2.20;;
49626;SDS011;35527;54.616;39.786;2023-06-19T01:23:53;7.43;;;2.40;;
49626;SDS011;35527;54.616;39.786;2023-06-19T01:26:56;4.75;;;2.30;;
49626;SDS011;35527;54.616;39.786;2023-06-19T01:30:04;6.18;;;2.35;;
49626;SDS011;35527;54.616;39.786;2023-06-19T01:36:13;6.63;;;2.53;;
49626;SDS011;35527;54.616;39.786;2023-06-19T01:39:17;5.28;;;2.45;;
49626;SDS011;35527;54.616;39.786;2023-06-19T01:42:21;7.45;;;2.60;;
49626;SDS011;35527;54.616;39.786;2023-06-19T01:45:24;4.75;;;2.20;;
49626;SDS011;35527;54.616;39.786;2023-06-19T01:48:27;5.13;;;2.38;;
49626;SDS011;35527;54.616;39.786;2023-06-19T01:51:33;4.22;;;2.10;;
49626;SDS011;35527;54.616;39.786;2023-06-19T01:54:39;6.03;;;2.50;;
49626;SDS011;35527;54.616;39.786;2023-06-19T01:57:42;6.10;;;2.75;;
49626;SDS011;35527;54.616;39.786;2023-06-19T02:00:44;5.18;;;2.13;;
49626;SDS011;35527;54.616;39.786;2023-06-19T02:03:47;6.38;;;2.80;;
49626;SDS011;35527;54.616;39.786;2023-06-19T02:06:53;4.18;;;2.10;;
49626;SDS011;35527;54.616;39.786;2023-06-19T02:09:57;5.70;;;2.50;;
49626;SDS011;35527;54.616;39.786;2023-06-19T02:13:00;5.72;;;2.40;;
49626;SDS011;35527;54.616;39.786;2023-06-19T02:16:03;8.00;;;2.50;;
49626;SDS011;35527;54.616;39.786;2023-06-19T02:19:08;6.57;;;2.53;;
49626;SDS011;35527;54.616;39.786;2023-06-19T02:22:13;4.68;;;2.25;;
49626;SDS011;35527;54.616;39.786;2023-06-19T02:25:16;5.57;;;2.60;;
49626;SDS011;35527;54.616;39.786;2023-06-19T02:28:19;5.07;;;2.50;;
49626;SDS011;35527;54.616;39.786;2023-06-19T02:31:24;7.28;;;2.88;;
49626;SDS011;35527;54.616;39.786;2023-06-19T02:34:27;7.40;;;2.70;;
49626;SDS011;35527;54.616;39.786;2023-06-19T02:37:32;5.60;;;3.03;;
49626;SDS011;35527;54.616;39.786;2023-06-19T02:40:41;5.13;;;2.60;;
49626;SDS011;35527;54.616;39.786;2023-06-19T02:43:46;8.00;;;3.00;;
49626;SDS011;35527;54.616;39.786;2023-06-19T02:46:50;5.60;;;2.70;;
49626;SDS011;35527;54.616;39.786;2023-06-19T02:49:53;6.13;;;2.55;;
49626;SDS011;35527;54.616;39.786;2023-06-19T02:52:57;6.03;;;2.65;;
49626;SDS011;35527;54.616;39.786;2023-06-19T02:56:00;5.35;;;2.60;;
49626;SDS011;35527;54.616;39.786;2023-06-19T02:59:04;6.85;;;2.42;;
49626;SDS011;35527;54.616;39.786;2023-06-19T03:02:06;6.78;;;2.42;;
49626;SDS011;35527;54.616;39.786;2023-06-19T03:05:09;5.38;;;2.65;;
49626;SDS011;35527;54.616;39.786;2023-06-19T03:08:17;6.10;;;2.70;;
49626;SDS011;35527;54.616;39.786;2023-06-19T03:11:21;6.07;;;2.30;;
49626;SDS011;35527;54.616;39.786;2023-06-19T03:14:27;6.13;;;2.70;;
49626;SDS011;35527;54.616;39.786;2023-06-19T03:17:31;7.25;;;2.70;;
49626;SDS011;35527;54.616;39.786;2023-06-19T03:20:37;6.75;;;2.67;;
49626;SDS011;35527;54.616;39.786;2023-06-19T03:23:41;6.22;;;2.75;;
49626;SDS011;35527;54.616;39.786;2023-06-19T03:26:44;5.80;;;3.00;;
49626;SDS011;35527;54.616;39.786;2023-06-19T03:29:50;4.95;;;2.50;;
49626;SDS011;35527;54.616;39.786;2023-06-19T03:33:03;6.45;;;2.70;;
49626;SDS011;35527;54.616;39.786;2023-06-19T03:36:17;7.17;;;3.07;;
49626;SDS011;35527;54.616;39.786;2023-06-19T03:39:24;6.50;;;2.53;;
49626;SDS011;35527;54.616;39.786;2023-06-19T03:42:32;5.57;;;2.50;;
49626;SDS011;35527;54.616;39.786;2023-06-19T03:45:35;7.32;;;2.50;;
49626;SDS011;35527;54.616;39.786;2023-06-19T03:48:38;6.72;;;2.50;;
49626;SDS011;35527;54.616;39.786;2023-06-19T03:51:42;5.20;;;2.33;;
49626;SDS011;35527;54.616;39.786;2023-06-19T03:54:45;6.10;;;2.20;;
49626;SDS011;35527;54.616;39.786;2023-06-19T03:57:52;9.75;;;2.40;;
49626;SDS011;35527;54.616;39.786;2023-06-19T04:00:57;5.90;;;2.40;;
49626;SDS011;35527;54.616;39.786;2023-06-19T04:04:02;3.90;;;2.00;;
49626;SDS011;35527;54.616;39.786;2023-06-19T04:07:07;5.45;;;2.20;;
49626;SDS011;35527;54.616;39.786;2023-06-19T04:10:16;5.60;;;2.00;;
49626;SDS011;35527;54.616;39.786;2023-06-19T04:13:19;5.80;;;2.17;;
49626;SDS011;35527;54.616;39.786;2023-06-19T04:16:22;4.50;;;2.28;;
49626;SDS011;35527;54.616;39.786;2023-06-19T04:19:28;5.28;;;2.20;;
49626;SDS011;35527;54.616;39.786;2023-06-19T04:22:34;4.45;;;1.83;;
49626;SDS011;35527;54.616;39.786;2023-06-19T04:25:37;5.38;;;2.10;;
49626;SDS011;35527;54.616;39.786;2023-06-19T04:28:40;4.88;;;2.00;;
49626;SDS011;35527;54.616;39.786;2023-06-19T04:31:44;4.90;;;2.00;;
49626;SDS011;35527;54.616;39.786;2023-06-19T04:34:52;4.70;;;2.05;;
49626;SDS011;35527;54.616;39.786;2023-06-19T04:37:57;3.85;;;1.80;;
49626;SDS011;35527;54.616;39.786;2023-06-19T04:41:03;4.93;;;2.00;;
49626;SDS011;35527;54.616;39.786;2023-06-19T04:44:06;6.30;;;2.00;;
49626;SDS011;35527;54.616;39.786;2023-06-19T04:47:16;4.93;;;1.98;;
49626;SDS011;35527;54.616;39.786;2023-06-19T04:50:24;3.92;;;1.90;;
49626;SDS011;35527;54.616;39.786;2023-06-19T04:53:29;4.60;;;2.33;;
49626;SDS011;35527;54.616;39.786;2023-06-19T04:56:35;3.90;;;1.90;;
49626;SDS011;35527;54.616;39.786;2023-06-19T05:02:46;4.85;;;1.77;;
49626;SDS011;35527;54.616;39.786;2023-06-19T05:05:50;4.93;;;2.03;;
49626;SDS011;35527;54.616;39.786;2023-06-19T05:08:53;3.88;;;1.67;;
49626;SDS011;35527;54.616;39.786;2023-06-19T05:12:01;6.25;;;1.85;;
49626;SDS011;35527;54.616;39.786;2023-06-19T05:15:04;4.15;;;1.80;;
49626;SDS011;35527;54.616;39.786;2023-06-19T05:18:08;5.97;;;1.80;;
49626;SDS011;35527;54.616;39.786;2023-06-19T05:21:17;5.78;;;1.85;;
49626;SDS011;35527;54.616;39.786;2023-06-19T05:24:20;3.40;;;1.58;;
49626;SDS011;35527;54.616;39.786;2023-06-19T05:27:23;5.88;;;1.58;;
49626;SDS011;35527;54.616;39.786;2023-06-19T05:30:26;4.68;;;1.50;;
49626;SDS011;35527;54.616;39.786;2023-06-19T05:33:29;5.28;;;1.70;;
49626;SDS011;35527;54.616;39.786;2023-06-19T05:36:32;5.32;;;1.70;;
49626;SDS011;35527;54.616;39.786;2023-06-19T05:39:34;3.58;;;1.90;;
49626;SDS011;35527;54.616;39.786;2023-06-19T05:42:38;4.70;;;2.08;;
49626;SDS011;35527;54.616;39.786;2023-06-19T05:45:43;4.88;;;1.77;;
49626;SDS011;35527;54.616;39.786;2023-06-19T05:48:48;4.30;;;1.70;;
49626;SDS011;35527;54.616;39.786;2023-06-19T05:51:51;3.95;;;1.63;;
49626;SDS011;35527;54.616;39.786;2023-06-19T05:54:55;6.15;;;1.80;;
49626;SDS011;35527;54.616;39.786;2023-06-19T05:57:58;3.55;;;1.50;;
49626;SDS011;35527;54.616;39.786;2023-06-19T06:01:01;4.72;;;1.90;;
49626;SDS011;35527;54.616;39.786;2023-06-19T06:04:05;5.72;;;1.85;;
49626;SDS011;35527;54.616;39.786;2023-06-19T06:07:08;6.88;;;2.00;;
49626;SDS011;35527;54.616;39.786;2023-06-19T06:10:15;5.00;;;1.67;;
49626;SDS011;35527;54.616;39.786;2023-06-19T06:13:18;4.97;;;1.83;;
49626;SDS011;35527;54.616;39.786;2023-06-19T06:16:26;4.55;;;1.85;;
49626;SDS011;35527;54.616;39.786;2023-06-19T06:19:29;6.35;;;1.60;;
49626;SDS011;35527;54.616;39.786;2023-06-19T06:22:34;4.15;;;1.52;;
49626;SDS011;35527;54.616;39.786;2023-06-19T06:25:38;4.85;;;1.85;;
49626;SDS011;35527;54.616;39.786;2023-06-19T06:28:41;3.67;;;1.65;;
49626;SDS011;35527;54.616;39.786;2023-06-19T06:31:45;3.83;;;1.90;;
49626;SDS011;35527;54.616;39.786;2023-06-19T06:34:51;4.88;;;1.70;;
49626;SDS011;35527;54.616;39.786;2023-06-19T06:37:54;4.63;;;1.50;;
49626;SDS011;35527;54.616;39.786;2023-06-19T06:40:57;4.15;;;1.90;;
49626;SDS011;35527;54.616;39.786;2023-06-19T06:44:00;4.53;;;1.60;;
49626;SDS011;35527;54.616;39.786;2023-06-19T06:47:05;3.80;;;1.48;;
49626;SDS011;35527;54.616;39.786;2023-06-19T06:50:09;3.45;;;1.75;;
49626;SDS011;35527;54.616;39.786;2023-06-19T06:53:19;4.97;;;1.90;;
49626;SDS011;35527;54.616;39.786;2023-06-19T06:56:24;4.57;;;1.80;;
49626;SDS011;35527;54.616;39.786;2023-06-19T06:59:27;2.55;;;1.50;;
49626;SDS011;35527;54.616;39.786;2023-06-19T07:02:30;3.83;;;2.00;;
49626;SDS011;35527;54.616;39.786;2023-06-19T07:05:33;4.30;;;1.77;;
49626;SDS011;35527;54.616;39.786;2023-06-19T07:08:36;4.22;;;1.65;;
49626;SDS011;35527;54.616;39.786;2023-06-19T07:11:39;3.30;;;1.50;;
49626;SDS011;35527;54.616;39.786;2023-06-19T07:14:44;2.88;;;1.50;;
49626;SDS011;35527;54.616;39.786;2023-06-19T07:17:49;2.88;;;1.50;;
49626;SDS011;35527;54.616;39.786;2023-06-19T07:20:51;4.43;;;1.70;;
49626;SDS011;35527;54.616;39.786;2023-06-19T07:24:00;7.30;;;1.80;;
49626;SDS011;35527;54.616;39.786;2023-06-19T07:27:03;5.43;;;1.92;;
49626;SDS011;35527;54.616;39.786;2023-06-19T07:30:06;3.08;;;1.50;;
49626;SDS011;35527;54.616;39.786;2023-06-19T07:33:09;3.72;;;1.70;;
49626;SDS011;35527;54.616;39.786;2023-06-19T07:36:20;5.25;;;1.80;;
49626;SDS011;35527;54.616;39.786;2023-06-19T07:39:24;3.33;;;1.40;;
49626;SDS011;35527;54.616;39.786;2023-06-19T07:42:29;3.22;;;1.65;;
49626;SDS011;35527;54.616;39.786;2023-06-19T07:45:32;5.35;;;1.52;;
49626;SDS011;35527;54.616;39.786;2023-06-19T07:48:35;5.53;;;1.63;;
49626;SDS011;35527;54.616;39.786;2023-06-19T07:54:52;4.53;;;1.70;;
49626;SDS011;35527;54.616;39.786;2023-06-19T07:57:59;15.85;;;1.73;;
49626;SDS011;35527;54.616;39.786;2023-06-19T08:01:02;2.83;;;1.60;;
49626;SDS011;35527;54.616;39.786;2023-06-19T08:04:06;2.33;;;1.35;;
49626;SDS011;35527;54.616;39.786;2023-06-19T08:07:12;5.63;;;1.90;;
49626;SDS011;35527;54.616;39.786;2023-06-19T08:13:18;4.20;;;1.50;;
49626;SDS011;35527;54.616;39.786;2023-06-19T08:16:24;3.67;;;1.52;;
49626;SDS011;35527;54.616;39.786;2023-06-19T08:19:29;3.70;;;1.63;;
49626;SDS011;35527;54.616;39.786;2023-06-19T08:22:31;3.28;;;1.55;;
49626;SDS011;35527;54.616;39.786;2023-06-19T08:25:34;4.32;;;1.70;;
49626;SDS011;35527;54.616;39.786;2023-06-19T08:28:38;4.20;;;1.73;;
49626;SDS011;35527;54.616;39.786;2023-06-19T08:31:44;4.30;;;1.92;;
49626;SDS011;35527;54.616;39.786;2023-06-19T08:34:47;3.75;;;1.83;;
49626;SDS011;35527;54.616;39.786;2023-06-19T08:40:54;6.20;;;1.92;;
49626;SDS011;35527;54.616;39.786;2023-06-19T08:47:01;3.83;;;1.70;;
49626;SDS011;35527;54.616;39.786;2023-06-19T08:50:06;4.38;;;1.58;;
49626;SDS011;35527;54.616;39.786;2023-06-19T08:53:09;3.70;;;1.90;;
49626;SDS011;35527;54.616;39.786;2023-06-19T08:56:16;2.83;;;1.50;;
49626;SDS011;35527;54.616;39.786;2023-06-19T08:59:19;3.53;;;1.77;;
49626;SDS011;35527;54.616;39.786;2023-06-19T09:02:24;3.75;;;1.50;;
49626;SDS011;35527;54.616;39.786;2023-06-19T09:05:41;4.65;;;1.67;;
49626;SDS011;35527;54.616;39.786;2023-06-19T09:08:59;5.03;;;1.75;;
49626;SDS011;35527;54.616;39.786;2023-06-19T09:12:07;4.57;;;2.00;;
49626;SDS011;35527;54.616;39.786;2023-06-19T09:15:17;3.40;;;1.70;;
49626;SDS011;35527;54.616;39.786;2023-06-19T09:18:20;6.10;;;1.80;;
49626;SDS011;35527;54.616;39.786;2023-06-19T09:21:24;4.47;;;1.65;;
49626;SDS011;35527;54.616;39.786;2023-06-19T09:24:37;4.28;;;1.65;;
49626;SDS011;35527;54.616;39.786;2023-06-19T09:27:44;3.55;;;1.70;;
49626;SDS011;35527;54.616;39.786;2023-06-19T09:30:52;4.50;;;1.42;;
49626;SDS011;35527;54.616;39.786;2023-06-19T09:34:01;3.92;;;1.90;;
49626;SDS011;35527;54.616;39.786;2023-06-19T09:37:04;2.88;;;1.50;;
49626;SDS011;35527;54.616;39.786;2023-06-19T09:40:08;1.95;;;1.25;;
49626;SDS011;35527;54.616;39.786;2023-06-19T09:43:17;3.58;;;1.48;;
49626;SDS011;35527;54.616;39.786;2023-06-19T09:46:25;3.78;;;1.70;;
49626;SDS011;35527;54.616;39.786;2023-06-19T09:49:33;4.28;;;1.50;;
49626;SDS011;35527;54.616;39.786;2023-06-19T09:52:37;5.13;;;1.73;;
49626;SDS011;35527;54.616;39.786;2023-06-19T09:55:44;4.28;;;1.60;;
49626;SDS011;35527;54.616;39.786;2023-06-19T09:58:48;4.00;;;1.70;;
49626;SDS011;35527;54.616;39.786;2023-06-19T10:01:53;4.47;;;1.70;;
49626;SDS011;35527;54.616;39.786;2023-06-19T10:04:56;3.63;;;1.67;;
49626;SDS011;35527;54.616;39.786;2023-06-19T10:08:04;5.93;;;1.67;;
49626;SDS011;35527;54.616;39.786;2023-06-19T10:11:08;3.63;;;1.63;;
49626;SDS011;35527;54.616;39.786;2023-06-19T10:14:15;3.55;;;1.70;;
49626;SDS011;35527;54.616;39.786;2023-06-19T10:17:22;3.47;;;1.75;;
49626;SDS011;35527;54.616;39.786;2023-06-19T10:20:33;3.75;;;1.80;;
49626;SDS011;35527;54.616;39.786;2023-06-19T10:23:43;6.63;;;1.77;;
49626;SDS011;35527;54.616;39.786;2023-06-19T10:26:57;3.53;;;1.55;;
49626;SDS011;35527;54.616;39.786;2023-06-19T10:30:03;4.00;;;1.88;;
49626;SDS011;35527;54.616;39.786;2023-06-19T10:33:06;4.53;;;1.60;;
49626;SDS011;35527;54.616;39.786;2023-06-19T10:39:26;3.78;;;1.67;;
49626;SDS011;35527;54.616;39.786;2023-06-19T10:42:30;5.67;;;1.67;;
49626;SDS011;35527;54.616;39.786;2023-06-19T10:45:40;3.75;;;1.50;;
49626;SDS011;35527;54.616;39.786;2023-06-19T10:48:44;4.90;;;1.83;;
49626;SDS011;35527;54.616;39.786;2023-06-19T10:51:50;5.30;;;1.67;;
49626;SDS011;35527;54.616;39.786;2023-06-19T10:55:03;4.50;;;1.70;;
49626;SDS011;35527;54.616;39.786;2023-06-19T10:58:07;3.75;;;1.75;;
49626;SDS011;35527;54.616;39.786;2023-06-19T11:01:13;4.15;;;1.83;;
49626;SDS011;35527;54.616;39.786;2023-06-19T11:04:16;4.68;;;1.73;;
49626;SDS011;35527;54.616;39.786;2023-06-19T11:07:19;3.05;;;1.55;;
49626;SDS011;35527;54.616;39.786;2023-06-19T11:10:22;2.90;;;1.60;;
49626;SDS011;35527;54.616;39.786;2023-06-19T11:13:27;4.50;;;1.90;;
49626;SDS011;35527;54.616;39.786;2023-06-19T11:16:32;4.03;;;1.90;;
49626;SDS011;35527;54.616;39.786;2023-06-19T11:19:38;3.47;;;1.60;;
49626;SDS011;35527;54.616;39.786;2023-06-19T11:22:53;2.90;;;1.63;;
49626;SDS011;35527;54.616;39.786;2023-06-19T11:26:03;4.03;;;1.70;;
49626;SDS011;35527;54.616;39.786;2023-06-19T11:29:41;3.72;;;1.85;;
49626;SDS011;35527;54.616;39.786;2023-06-19T11:32:38;3.50;;;1.73;;
49626;SDS011;35527;54.616;39.786;2023-06-19T11:35:53;5.57;;;1.80;;
49626;SDS011;35527;54.616;39.786;2023-06-19T11:38:58;4.15;;;1.85;;
49626;SDS011;35527;54.616;39.786;2023-06-19T11:42:01;4.28;;;1.70;;
49626;SDS011;35527;54.616;39.786;2023-06-19T11:45:05;4.60;;;1.63;;
49626;SDS011;35527;54.616;39.786;2023-06-19T11:48:12;3.75;;;1.60;;
49626;SDS011;35527;54.616;39.786;2023-06-19T11:51:15;4.45;;;1.60;;
49626;SDS011;35527;54.616;39.786;2023-06-19T11:54:18;3.85;;;1.65;;
49626;SDS011;35527;54.616;39.786;2023-06-19T11:57:22;4.82;;;1.60;;
49626;SDS011;35527;54.616;39.786;2023-06-19T12:00:27;3.35;;;1.73;;
49626;SDS011;35527;54.616;39.786;2023-06-19T12:03:30;10.15;;;1.92;;
49626;SDS011;35527;54.616;39.786;2023-06-19T12:06:33;3.40;;;1.70;;
49626;SDS011;35527;54.616;39.786;2023-06-19T12:09:39;12.20;;;1.90;;
49626;SDS011;35527;54.616;39.786;2023-06-19T12:12:46;4.65;;;1.80;;
49626;SDS011;35527;54.616;39.786;2023-06-19T12:15:48;5.20;;;1.83;;
49626;SDS011;35527;54.616;39.786;2023-06-19T12:18:55;6.40;;;2.55;;
49626;SDS011;35527;54.616;39.786;2023-06-19T12:21:58;3.75;;;1.90;;
49626;SDS011;35527;54.616;39.786;2023-06-19T12:25:02;4.97;;;1.87;;
49626;SDS011;35527;54.616;39.786;2023-06-19T12:28:07;4.18;;;1.80;;
49626;SDS011;35527;54.616;39.786;2023-06-19T12:31:10;3.20;;;1.67;;
49626;SDS011;35527;54.616;39.786;2023-06-19T12:34:15;3.05;;;1.60;;
49626;SDS011;35527;54.616;39.786;2023-06-19T12:37:32;4.18;;;1.80;;
49626;SDS011;35527;54.616;39.786;2023-06-19T12:40:37;3.35;;;1.70;;
49626;SDS011;35527;54.616;39.786;2023-06-19T12:43:41;4.47;;;1.70;;
49626;SDS011;35527;54.616;39.786;2023-06-19T12:46:44;3.92;;;1.70;;
49626;SDS011;35527;54.616;39.786;2023-06-19T12:49:48;5.05;;;1.70;;
49626;SDS011;35527;54.616;39.786;2023-06-19T12:52:51;4.55;;;1.70;;
49626;SDS011;35527;54.616;39.786;2023-06-19T12:55:54;2.92;;;1.48;;
49626;SDS011;35527;54.616;39.786;2023-06-19T12:59:00;3.33;;;1.63;;
49626;SDS011;35527;54.616;39.786;2023-06-19T13:02:05;3.20;;;1.50;;
49626;SDS011;35527;54.616;39.786;2023-06-19T13:05:09;2.97;;;1.83;;
49626;SDS011;35527;54.616;39.786;2023-06-19T13:08:12;5.13;;;1.80;;
49626;SDS011;35527;54.616;39.786;2023-06-19T13:11:15;3.42;;;1.70;;
49626;SDS011;35527;54.616;39.786;2023-06-19T13:14:19;4.38;;;1.80;;
49626;SDS011;35527;54.616;39.786;2023-06-19T13:20:26;4.07;;;1.63;;
49626;SDS011;35527;54.616;39.786;2023-06-19T13:23:28;4.15;;;1.73;;
49626;SDS011;35527;54.616;39.786;2023-06-19T13:26:35;3.47;;;1.73;;
49626;SDS011;35527;54.616;39.786;2023-06-19T13:29:40;4.20;;;1.55;;
49626;SDS011;35527;54.616;39.786;2023-06-19T13:32:43;3.85;;;1.73;;
49626;SDS011;35527;54.616;39.786;2023-06-19T13:35:47;3.85;;;1.77;;
49626;SDS011;35527;54.616;39.786;2023-06-19T13:38:52;4.07;;;1.60;;
49626;SDS011;35527;54.616;39.786;2023-06-19T13:41:58;4.10;;;1.80;;
49626;SDS011;35527;54.616;39.786;2023-06-19T13:45:04;3.50;;;1.90;;
49626;SDS011;35527;54.616;39.786;2023-06-19T13:48:08;3.97;;;1.50;;
49626;SDS011;35527;54.616;39.786;2023-06-19T13:51:11;5.75;;;1.80;;
49626;SDS011;35527;54.616;39.786;2023-06-19T13:54:14;3.15;;;1.60;;
49626;SDS011;35527;54.616;39.786;2023-06-19T13:57:16;3.38;;;1.80;;
49626;SDS011;35527;54.616;39.786;2023-06-19T14:00:20;4.47;;;2.00;;
49626;SDS011;35527;54.616;39.786;2023-06-19T14:03:28;4.00;;;1.80;;
49626;SDS011;35527;54.616;39.786;2023-06-19T14:06:32;4.65;;;1.90;;
49626;SDS011;35527;54.616;39.786;2023-06-19T14:09:34;4.55;;;1.70;;
49626;SDS011;35527;54.616;39.786;2023-06-19T14:12:39;4.00;;;1.75;;
49626;SDS011;35527;54.616;39.786;2023-06-19T14:15:45;4.25;;;1.73;;
49626;SDS011;35527;54.616;39.786;2023-06-19T14:18:48;3.65;;;2.00;;
49626;SDS011;35527;54.616;39.786;2023-06-19T14:21:50;4.40;;;1.70;;
49626;SDS011;35527;54.616;39.786;2023-06-19T14:24:56;4.45;;;2.00;;
49626;SDS011;35527;54.616;39.786;2023-06-19T14:28:03;4.57;;;2.03;;
49626;SDS011;35527;54.616;39.786;2023-06-19T14:31:09;7.32;;;2.25;;
49626;SDS011;35527;54.616;39.786;2023-06-19T14:34:13;3.87;;;1.90;;
49626;SDS011;35527;54.616;39.786;2023-06-19T14:37:18;3.47;;;1.88;;
49626;SDS011;35527;54.616;39.786;2023-06-19T14:40:23;6.80;;;2.08;;
49626;SDS011;35527;54.616;39.786;2023-06-19T14:43:26;4.60;;;2.00;;
49626;SDS011;35527;54.616;39.786;2023-06-19T14:46:30;4.63;;;1.75;;
49626;SDS011;35527;54.616;39.786;2023-06-19T14:49:37;4.75;;;1.90;;
49626;SDS011;35527;54.616;39.786;2023-06-19T14:52:41;3.22;;;1.60;;
49626;SDS011;35527;54.616;39.786;2023-06-19T14:55:44;4.70;;;1.88;;
49626;SDS011;35527;54.616;39.786;2023-06-19T14:58:48;4.25;;;1.88;;
49626;SDS011;35527;54.616;39.786;2023-06-19T15:01:51;5.32;;;2.00;;
49626;SDS011;35527;54.616;39.786;2023-06-19T15:04:54;5.43;;;2.10;;
49626;SDS011;35527;54.616;39.786;2023-06-19T15:08:03;4.10;;;1.70;;
49626;SDS011;35527;54.616;39.786;2023-06-19T15:11:09;4.20;;;2.40;;
49626;SDS011;35527;54.616;39.786;2023-06-19T15:14:12;5.10;;;2.20;;
49626;SDS011;35527;54.616;39.786;2023-06-19T15:17:15;4.93;;;1.83;;
49626;SDS011;35527;54.616;39.786;2023-06-19T15:20:20;4.85;;;2.20;;
49626;SDS011;35527;54.616;39.786;2023-06-19T15:23:23;3.88;;;1.90;;
49626;SDS011;35527;54.616;39.786;2023-06-19T15:26:31;5.32;;;2.13;;
49626;SDS011;35527;54.616;39.786;2023-06-19T15:29:33;4.25;;;2.10;;
49626;SDS011;35527;54.616;39.786;2023-06-19T15:32:36;3.70;;;1.67;;
49626;SDS011;35527;54.616;39.786;2023-06-19T15:35:39;4.05;;;1.67;;
49626;SDS011;35527;54.616;39.786;2023-06-19T15:38:42;4.40;;;1.90;;
49626;SDS011;35527;54.616;39.786;2023-06-19T15:41:47;3.78;;;1.90;;
49626;SDS011;35527;54.616;39.786;2023-06-19T15:44:51;4.53;;;1.73;;
49626;SDS011;35527;54.616;39.786;2023-06-19T15:47:53;3.63;;;1.77;;
49626;SDS011;35527;54.616;39.786;2023-06-19T15:50:59;4.07;;;1.80;;
49626;SDS011;35527;54.616;39.786;2023-06-19T15:54:01;3.92;;;2.00;;
49626;SDS011;35527;54.616;39.786;2023-06-19T15:57:07;5.47;;;1.80;;
49626;SDS011;35527;54.616;39.786;2023-06-19T16:00:13;5.63;;;1.90;;
49626;SDS011;35527;54.616;39.786;2023-06-19T16:03:17;4.95;;;1.80;;
49626;SDS011;35527;54.616;39.786;2023-06-19T16:06:22;5.55;;;2.08;;
49626;SDS011;35527;54.616;39.786;2023-06-19T16:09:24;3.85;;;1.80;;
49626;SDS011;35527;54.616;39.786;2023-06-19T16:12:29;4.82;;;1.70;;
49626;SDS011;35527;54.616;39.786;2023-06-19T16:15:34;3.30;;;1.73;;
49626;SDS011;35527;54.616;39.786;2023-06-19T16:18:37;3.88;;;1.83;;
49626;SDS011;35527;54.616;39.786;2023-06-19T16:21:43;4.22;;;1.70;;
49626;SDS011;35527;54.616;39.786;2023-06-19T16:24:48;2.83;;;1.52;;
49626;SDS011;35527;54.616;39.786;2023-06-19T16:27:52;3.75;;;1.73;;
49626;SDS011;35527;54.616;39.786;2023-06-19T16:30:56;3.47;;;1.65;;
49626;SDS011;35527;54.616;39.786;2023-06-19T16:33:58;5.00;;;2.05;;
49626;SDS011;35527;54.616;39.786;2023-06-19T16:37:02;4.03;;;1.40;;
49626;SDS011;35527;54.616;39.786;2023-06-19T16:40:05;4.55;;;1.95;;
49626;SDS011;35527;54.616;39.786;2023-06-19T16:43:11;3.60;;;1.67;;
49626;SDS011;35527;54.616;39.786;2023-06-19T16:46:15;4.47;;;1.88;;
49626;SDS011;35527;54.616;39.786;2023-06-19T16:49:18;3.45;;;1.73;;
49626;SDS011;35527;54.616;39.786;2023-06-19T16:52:25;3.03;;;1.60;;
49626;SDS011;35527;54.616;39.786;2023-06-19T16:55:33;4.97;;;1.80;;
49626;SDS011;35527;54.616;39.786;2023-06-19T16:58:38;3.75;;;1.90;;
49626;SDS011;35527;54.616;39.786;2023-06-19T17:01:40;4.97;;;1.70;;
49626;SDS011;35527;54.616;39.786;2023-06-19T17:04:43;8.40;;;2.53;;
49626;SDS011;35527;54.616;39.786;2023-06-19T17:07:49;5.22;;;2.10;;
49626;SDS011;35527;54.616;39.786;2023-06-19T17:10:52;8.63;;;2.35;;
49626;SDS011;35527;54.616;39.786;2023-06-19T17:13:57;5.47;;;2.00;;
49626;SDS011;35527;54.616;39.786;2023-06-19T17:17:00;6.65;;;2.60;;
49626;SDS011;35527;54.616;39.786;2023-06-19T17:20:05;4.75;;;2.10;;
49626;SDS011;35527;54.616;39.786;2023-06-19T17:23:11;6.03;;;2.30;;
49626;SDS011;35527;54.616;39.786;2023-06-19T17:26:16;4.63;;;2.25;;
49626;SDS011;35527;54.616;39.786;2023-06-19T17:29:25;6.93;;;2.60;;
49626;SDS011;35527;54.616;39.786;2023-06-19T17:32:30;5.93;;;2.40;;
49626;SDS011;35527;54.616;39.786;2023-06-19T17:35:33;5.88;;;2.20;;
49626;SDS011;35527;54.616;39.786;2023-06-19T17:38:36;4.90;;;2.17;;
49626;SDS011;35527;54.616;39.786;2023-06-19T17:41:43;6.80;;;2.72;;
49626;SDS011;35527;54.616;39.786;2023-06-19T17:44:46;5.85;;;2.50;;
49626;SDS011;35527;54.616;39.786;2023-06-19T17:47:50;6.93;;;2.33;;
49626;SDS011;35527;54.616;39.786;2023-06-19T17:50:52;7.38;;;2.55;;
49626;SDS011;35527;54.616;39.786;2023-06-19T17:53:56;6.18;;;2.92;;
49626;SDS011;35527;54.616;39.786;2023-06-19T17:57:00;5.70;;;2.40;;
49626;SDS011;35527;54.616;39.786;2023-06-19T18:00:05;8.00;;;3.17;;
49626;SDS011;35527;54.616;39.786;2023-06-19T18:03:13;6.05;;;3.00;;
49626;SDS011;35527;54.616;39.786;2023-06-19T18:06:22;5.35;;;2.70;;
49626;SDS011;35527;54.616;39.786;2023-06-19T18:09:25;8.65;;;4.20;;
49626;SDS011;35527;54.616;39.786;2023-06-19T18:12:31;6.93;;;3.85;;
49626;SDS011;35527;54.616;39.786;2023-06-19T18:15:33;6.63;;;3.70;;
49626;SDS011;35527;54.616;39.786;2023-06-19T18:18:40;6.50;;;3.33;;
49626;SDS011;35527;54.616;39.786;2023-06-19T18:21:45;6.82;;;2.80;;
49626;SDS011;35527;54.616;39.786;2023-06-19T18:24:48;9.43;;;2.80;;
49626;SDS011;35527;54.616;39.786;2023-06-19T18:27:51;7.40;;;2.55;;
49626;SDS011;35527;54.616;39.786;2023-06-19T18:30:55;6.75;;;3.50;;
49626;SDS011;35527;54.616;39.786;2023-06-19T18:33:59;6.72;;;3.50;;
49626;SDS011;35527;54.616;39.786;2023-06-19T18:37:04;8.10;;;2.95;;
49626;SDS011;35527;54.616;39.786;2023-06-19T18:40:07;7.57;;;3.85;;
49626;SDS011;35527;54.616;39.786;2023-06-19T18:43:11;7.85;;;4.82;;
49626;SDS011;35527;54.616;39.786;2023-06-19T18:46:15;8.50;;;5.53;;
49626;SDS011;35527;54.616;39.786;2023-06-19T18:49:18;9.32;;;4.70;;
49626;SDS011;35527;54.616;39.786;2023-06-19T18:52:21;8.70;;;4.15;;